Terminal Aerodrome Forecast
Issued by NWS Charleston, WV

Home | Current Version | Previous Version | Text Only | Print | Product List | Glossary On
Versions: 1 2 3 4 5 6 7 8 9 10 11 12 13 14 15 16 17 18 19 20 21 22 23 24 25 26
000
FTUS41 KRLX 250800 AAA
TAFCRW
TAF AMD
KCRW 250828Z 2508/2606 00000KT 3SM BR FEW001
     FM250900 00000KT 2SM BR SCT001
      TEMPO 2509/2513 1/4SM FG VV001
     FM251300 00000KT 3SM BR BKN002
     FM251400 22004KT 6SM BR SCT003
     FM251500 23006KT P6SM SCT040
     FM251800 23007KT P6SM BKN040
     FM260400 26004KT P6SM BKN025=

USA.gov is the U.S. government's official web portal to all federal, state and local government web resources and services.